sensor_id;sensor_type;location;lat;lon;timestamp;pressure;altitude;pressure_sealevel;temperature;humidity
75775;BME280;64505;51.458;7.556;2023-02-03T00:01:22;100560.88;;;7.41;92.29
75775;BME280;64505;51.458;7.556;2023-02-03T00:03:24;100555.63;;;7.41;92.39
75775;BME280;64505;51.458;7.556;2023-02-03T00:05:25;100543.53;;;7.47;91.43
75775;BME280;64505;51.458;7.556;2023-02-03T00:07:27;100533.56;;;7.42;91.69
75775;BME280;64505;51.458;7.556;2023-02-03T00:09:29;100536.38;;;7.40;91.74
75775;BME280;64505;51.458;7.556;2023-02-03T00:11:31;100534.81;;;7.46;91.57
75775;BME280;64505;51.458;7.556;2023-02-03T00:13:33;100534.38;;;7.42;91.87
75775;BME280;64505;51.458;7.556;2023-02-03T00:15:35;100536.84;;;7.44;91.47
75775;BME280;64505;51.458;7.556;2023-02-03T00:17:36;100532.41;;;7.45;91.86
75775;BME280;64505;51.458;7.556;2023-02-03T00:19:38;100537.00;;;7.42;91.70
75775;BME280;64505;51.458;7.556;2023-02-03T00:21:39;100532.56;;;7.43;91.70
75775;BME280;64505;51.458;7.556;2023-02-03T00:23:41;100530.91;;;7.42;91.44
75775;BME280;64505;51.458;7.556;2023-02-03T00:25:42;100535.03;;;7.45;91.58
75775;BME280;64505;51.458;7.556;2023-02-03T00:27:44;100527.47;;;7.41;91.51
75775;BME280;64505;51.458;7.556;2023-02-03T00:29:45;100523.69;;;7.44;91.20
75775;BME280;64505;51.458;7.556;2023-02-03T00:31:47;100523.03;;;7.42;91.53
75775;BME280;64505;51.458;7.556;2023-02-03T00:33:53;100532.56;;;7.43;90.89
75775;BME280;64505;51.458;7.556;2023-02-03T00:35:56;100527.66;;;7.40;91.49
75775;BME280;64505;51.458;7.556;2023-02-03T00:37:57;100512.50;;;7.42;91.14
75775;BME280;64505;51.458;7.556;2023-02-03T00:39:59;100523.22;;;7.40;91.15
75775;BME280;64505;51.458;7.556;2023-02-03T00:42:00;100512.69;;;7.40;91.51
75775;BME280;64505;51.458;7.556;2023-02-03T00:44:01;100523.03;;;7.42;91.84
75775;BME280;64505;51.458;7.556;2023-02-03T00:46:03;100513.53;;;7.41;91.55
75775;BME280;64505;51.458;7.556;2023-02-03T00:48:04;100518.22;;;7.46;91.23
75775;BME280;64505;51.458;7.556;2023-02-03T00:50:06;100522.69;;;7.45;90.49
75775;BME280;64505;51.458;7.556;2023-02-03T00:52:08;100529.13;;;7.42;90.73
75775;BME280;64505;51.458;7.556;2023-02-03T00:54:09;100530.75;;;7.43;90.80
75775;BME280;64505;51.458;7.556;2023-02-03T00:56:11;100540.28;;;7.45;90.89
75775;BME280;64505;51.458;7.556;2023-02-03T00:58:12;100537.47;;;7.46;90.97
75775;BME280;64505;51.458;7.556;2023-02-03T01:00:14;100533.00;;;7.47;90.95
75775;BME280;64505;51.458;7.556;2023-02-03T01:02:16;100541.38;;;7.50;90.06
75775;BME280;64505;51.458;7.556;2023-02-03T01:04:17;100537.91;;;7.50;90.59
75775;BME280;64505;51.458;7.556;2023-02-03T01:06:19;100542.56;;;7.48;90.90
75775;BME280;64505;51.458;7.556;2023-02-03T01:08:21;100552.25;;;7.47;90.98
75775;BME280;64505;51.458;7.556;2023-02-03T01:10:23;100560.06;;;7.55;89.69
75775;BME280;64505;51.458;7.556;2023-02-03T01:12:28;100558.44;;;7.54;90.31
75775;BME280;64505;51.458;7.556;2023-02-03T01:14:30;100560.31;;;7.46;90.60
75775;BME280;64505;51.458;7.556;2023-02-03T01:16:31;100559.63;;;7.52;90.77
75775;BME280;64505;51.458;7.556;2023-02-03T01:18:37;100564.22;;;7.50;90.00
75775;BME280;64505;51.458;7.556;2023-02-03T01:20:38;100572.56;;;7.53;90.36
75775;BME280;64505;51.458;7.556;2023-02-03T01:22:39;100588.72;;;7.50;90.41
75775;BME280;64505;51.458;7.556;2023-02-03T01:24:41;100583.91;;;7.54;89.97
75775;BME280;64505;51.458;7.556;2023-02-03T01:26:43;100584.13;;;7.52;90.21
75775;BME280;64505;51.458;7.556;2023-02-03T01:28:58;100566.31;;;7.54;89.93
75775;BME280;64505;51.458;7.556;2023-02-03T01:31:13;100568.78;;;7.56;90.47
75775;BME280;64505;51.458;7.556;2023-02-03T01:33:15;100556.78;;;7.53;90.79
75775;BME280;64505;51.458;7.556;2023-02-03T01:35:17;100553.31;;;7.53;90.29
75775;BME280;64505;51.458;7.556;2023-02-03T01:37:18;100553.97;;;7.55;90.23
75775;BME280;64505;51.458;7.556;2023-02-03T01:39:20;100565.34;;;7.55;90.64
75775;BME280;64505;51.458;7.556;2023-02-03T01:41:24;100564.31;;;7.56;90.59
75775;BME280;64505;51.458;7.556;2023-02-03T01:43:29;100555.88;;;7.61;89.78
75775;BME280;64505;51.458;7.556;2023-02-03T01:45:31;100560.69;;;7.57;90.41
75775;BME280;64505;51.458;7.556;2023-02-03T01:47:35;100565.34;;;7.55;90.48
75775;BME280;64505;51.458;7.556;2023-02-03T01:49:43;100567.13;;;7.55;90.87
75775;BME280;64505;51.458;7.556;2023-02-03T01:51:47;100565.34;;;7.55;90.27
75775;BME280;64505;51.458;7.556;2023-02-03T01:53:51;100559.03;;;7.56;90.44
75775;BME280;64505;51.458;7.556;2023-02-03T01:55:53;100556.41;;;7.56;90.51
75775;BME280;64505;51.458;7.556;2023-02-03T01:58:03;100556.63;;;7.55;90.43
75775;BME280;64505;51.458;7.556;2023-02-03T02:00:07;100551.53;;;7.53;90.67
75775;BME280;64505;51.458;7.556;2023-02-03T02:02:10;100548.50;;;7.56;90.02
75775;BME280;64505;51.458;7.556;2023-02-03T02:04:12;100551.97;;;7.57;90.02
75775;BME280;64505;51.458;7.556;2023-02-03T02:06:14;100545.25;;;7.54;90.51
75775;BME280;64505;51.458;7.556;2023-02-03T02:08:17;100551.81;;;7.58;90.34
75775;BME280;64505;51.458;7.556;2023-02-03T02:10:20;100554.59;;;7.57;90.39
75775;BME280;64505;51.458;7.556;2023-02-03T02:12:21;100558.25;;;7.56;90.09
75775;BME280;64505;51.458;7.556;2023-02-03T02:14:22;100561.22;;;7.53;90.85
75775;BME280;64505;51.458;7.556;2023-02-03T02:16:55;100546.91;;;7.55;90.39
75775;BME280;64505;51.458;7.556;2023-02-03T02:24:04;100539.19;;;7.54;89.72
75775;BME280;64505;51.458;7.556;2023-02-03T02:33:13;100497.91;;;7.54;89.85
75775;BME280;64505;51.458;7.556;2023-02-03T02:37:51;100481.28;;;7.54;89.46
75775;BME280;64505;51.458;7.556;2023-02-03T02:42:25;100477.84;;;7.53;89.63
75775;BME280;64505;51.458;7.556;2023-02-03T02:44:34;100487.91;;;7.50;90.04
75775;BME280;64505;51.458;7.556;2023-02-03T02:46:46;100474.13;;;7.48;90.07
75775;BME280;64505;51.458;7.556;2023-02-03T02:49:00;100489.19;;;7.54;89.44
75775;BME280;64505;51.458;7.556;2023-02-03T02:51:06;100498.50;;;7.56;88.88
75775;BME280;64505;51.458;7.556;2023-02-03T02:53:10;100485.56;;;7.55;89.88
75775;BME280;64505;51.458;7.556;2023-02-03T02:55:17;100482.56;;;7.58;89.20
75775;BME280;64505;51.458;7.556;2023-02-03T02:57:25;100475.47;;;7.58;89.34
75775;BME280;64505;51.458;7.556;2023-02-03T02:59:27;100480.75;;;7.58;89.42
75775;BME280;64505;51.458;7.556;2023-02-03T03:01:29;100466.75;;;7.58;89.64
75775;BME280;64505;51.458;7.556;2023-02-03T03:03:30;100470.59;;;7.55;89.41
75775;BME280;64505;51.458;7.556;2023-02-03T03:05:32;100479.66;;;7.53;89.37
75775;BME280;64505;51.458;7.556;2023-02-03T03:07:40;100478.47;;;7.55;88.78
75775;BME280;64505;51.458;7.556;2023-02-03T03:09:50;100502.34;;;7.54;89.44
75775;BME280;64505;51.458;7.556;2023-02-03T03:11:57;100542.81;;;7.53;89.02
75775;BME280;64505;51.458;7.556;2023-02-03T03:14:00;100551.34;;;7.55;88.92
75775;BME280;64505;51.458;7.556;2023-02-03T03:16:04;100550.97;;;7.58;89.25
75775;BME280;64505;51.458;7.556;2023-02-03T03:18:32;100527.28;;;7.58;88.66
75775;BME280;64505;51.458;7.556;2023-02-03T03:20:35;100522.19;;;7.56;89.18
75775;BME280;64505;51.458;7.556;2023-02-03T03:22:44;100521.59;;;7.54;89.41
75775;BME280;64505;51.458;7.556;2023-02-03T03:24:57;100521.13;;;7.51;89.64
75775;BME280;64505;51.458;7.556;2023-02-03T03:29:15;100515.94;;;7.57;88.43
75775;BME280;64505;51.458;7.556;2023-02-03T03:31:19;100497.91;;;7.54;88.44
75775;BME280;64505;51.458;7.556;2023-02-03T03:33:21;100490.63;;;7.56;87.89
75775;BME280;64505;51.458;7.556;2023-02-03T03:35:29;100502.34;;;7.54;87.99
75775;BME280;64505;51.458;7.556;2023-02-03T03:37:35;100504.53;;;7.50;88.53
75775;BME280;64505;51.458;7.556;2023-02-03T03:39:47;100503.31;;;7.53;88.63
75775;BME280;64505;51.458;7.556;2023-02-03T03:42:09;100511.06;;;7.54;87.84
75775;BME280;64505;51.458;7.556;2023-02-03T03:44:15;100513.22;;;7.51;88.85
75775;BME280;64505;51.458;7.556;2023-02-03T03:46:22;100497.44;;;7.51;88.56
75775;BME280;64505;51.458;7.556;2023-02-03T03:50:52;100497.63;;;7.49;88.32
75775;BME280;64505;51.458;7.556;2023-02-03T03:52:57;100496.00;;;7.48;88.76
75775;BME280;64505;51.458;7.556;2023-02-03T03:55:02;100498.25;;;7.51;88.44
75775;BME280;64505;51.458;7.556;2023-02-03T03:59:19;100487.75;;;7.51;88.04
75775;BME280;64505;51.458;7.556;2023-02-03T04:01:24;100505.34;;;7.51;88.24
75775;BME280;64505;51.458;7.556;2023-02-03T04:03:38;100510.59;;;7.51;87.97
75775;BME280;64505;51.458;7.556;2023-02-03T04:05:41;100515.03;;;7.50;88.34
75775;BME280;64505;51.458;7.556;2023-02-03T04:07:44;100514.22;;;7.50;87.65
75775;BME280;64505;51.458;7.556;2023-02-03T04:09:46;100496.00;;;7.48;88.47
75775;BME280;64505;51.458;7.556;2023-02-03T04:11:47;100498.25;;;7.51;87.89
75775;BME280;64505;51.458;7.556;2023-02-03T04:14:06;100490.81;;;7.55;86.81
75775;BME280;64505;51.458;7.556;2023-02-03T04:16:07;100493.63;;;7.53;87.64
75775;BME280;64505;51.458;7.556;2023-02-03T04:18:11;100495.44;;;7.53;88.00
75775;BME280;64505;51.458;7.556;2023-02-03T04:20:13;100499.72;;;7.54;86.96
75775;BME280;64505;51.458;7.556;2023-02-03T04:22:15;100490.53;;;7.50;87.70
75775;BME280;64505;51.458;7.556;2023-02-03T04:24:16;100500.06;;;7.51;86.93
75775;BME280;64505;51.458;7.556;2023-02-03T04:26:18;100486.53;;;7.54;87.29
75775;BME280;64505;51.458;7.556;2023-02-03T04:28:19;100490.63;;;7.56;86.73
75775;BME280;64505;51.458;7.556;2023-02-03T04:30:21;100485.81;;;7.60;86.81
75775;BME280;64505;51.458;7.556;2023-02-03T04:32:22;100487.97;;;7.56;86.84
75775;BME280;64505;51.458;7.556;2023-02-03T04:34:24;100490.81;;;7.55;87.38
75775;BME280;64505;51.458;7.556;2023-02-03T04:36:25;100499.91;;;7.52;87.51
75775;BME280;64505;51.458;7.556;2023-02-03T04:38:27;100490.81;;;7.55;87.26
75775;BME280;64505;51.458;7.556;2023-02-03T04:40:28;100501.78;;;7.58;87.11
75775;BME280;64505;51.458;7.556;2023-02-03T04:42:30;100491.63;;;7.55;87.52
75775;BME280;64505;51.458;7.556;2023-02-03T04:44:32;100488.19;;;7.55;87.54
75775;BME280;64505;51.458;7.556;2023-02-03T04:46:33;100502.34;;;7.54;87.93
75775;BME280;64505;51.458;7.556;2023-02-03T04:48:35;100500.34;;;7.56;87.19
75775;BME280;64505;51.458;7.556;2023-02-03T04:50:37;100494.34;;;7.62;86.08
75775;BME280;64505;51.458;7.556;2023-02-03T04:52:38;100474.28;;;7.61;86.44
75775;BME280;64505;51.458;7.556;2023-02-03T04:54:40;100462.94;;;7.60;86.43
75775;BME280;64505;51.458;7.556;2023-02-03T04:56:42;100450.34;;;7.56;87.02
75775;BME280;64505;51.458;7.556;2023-02-03T04:58:43;100450.78;;;7.59;86.86
75775;BME280;64505;51.458;7.556;2023-02-03T05:00:46;100453.16;;;7.54;87.62
75775;BME280;64505;51.458;7.556;2023-02-03T05:02:47;100456.97;;;7.52;87.24
75775;BME280;64505;51.458;7.556;2023-02-03T05:04:49;100467.75;;;7.57;86.71
75775;BME280;64505;51.458;7.556;2023-02-03T05:06:50;100453.16;;;7.54;87.39
75775;BME280;64505;51.458;7.556;2023-02-03T05:08:52;100464.94;;;7.58;87.37
75775;BME280;64505;51.458;7.556;2023-02-03T05:10:53;100463.50;;;7.56;87.37
75775;BME280;64505;51.458;7.556;2023-02-03T05:12:55;100475.03;;;7.55;86.56
75775;BME280;64505;51.458;7.556;2023-02-03T05:14:56;100466.00;;;7.64;86.93
75775;BME280;64505;51.458;7.556;2023-02-03T05:16:57;100473.28;;;7.62;86.70
75775;BME280;64505;51.458;7.556;2023-02-03T05:18:59;100452.41;;;7.60;87.28
75775;BME280;64505;51.458;7.556;2023-02-03T05:21:00;100450.41;;;7.62;86.81
75775;BME280;64505;51.458;7.556;2023-02-03T05:23:02;100437.63;;;7.59;86.72
75775;BME280;64505;51.458;7.556;2023-02-03T05:25:04;100444.34;;;7.62;86.64
75775;BME280;64505;51.458;7.556;2023-02-03T05:27:05;100450.03;;;7.65;86.16
75775;BME280;64505;51.458;7.556;2023-02-03T05:29:07;100447.78;;;7.62;86.36
75775;BME280;64505;51.458;7.556;2023-02-03T05:31:10;100448.78;;;7.61;87.06
75775;BME280;64505;51.458;7.556;2023-02-03T05:33:12;100474.09;;;7.62;86.82
75775;BME280;64505;51.458;7.556;2023-02-03T05:35:13;100467.28;;;7.68;85.83
75775;BME280;64505;51.458;7.556;2023-02-03T05:37:14;100463.38;;;7.64;86.55
75775;BME280;64505;51.458;7.556;2023-02-03T05:39:16;100451.25;;;7.63;86.31
75775;BME280;64505;51.458;7.556;2023-02-03T05:41:17;100437.44;;;7.61;86.48
75775;BME280;64505;51.458;7.556;2023-02-03T05:43:37;100438.31;;;7.68;85.98
75775;BME280;64505;51.458;7.556;2023-02-03T05:45:39;100435.69;;;7.68;86.33
75775;BME280;64505;51.458;7.556;2023-02-03T05:47:41;100449.59;;;7.62;86.22
75775;BME280;64505;51.458;7.556;2023-02-03T05:49:42;100452.69;;;7.65;86.48
75775;BME280;64505;51.458;7.556;2023-02-03T05:51:45;100459.44;;;7.74;85.35
75775;BME280;64505;51.458;7.556;2023-02-03T05:53:47;100442.97;;;7.66;85.83
75775;BME280;64505;51.458;7.556;2023-02-03T05:55:48;100449.88;;;7.67;85.53
75775;BME280;64505;51.458;7.556;2023-02-03T05:57:50;100440.72;;;7.63;86.26
75775;BME280;64505;51.458;7.556;2023-02-03T05:59:51;100442.41;;;7.70;85.92
75775;BME280;64505;51.458;7.556;2023-02-03T06:01:53;100450.50;;;7.69;85.77
75775;BME280;64505;51.458;7.556;2023-02-03T06:03:54;100444.94;;;7.64;86.16
75775;BME280;64505;51.458;7.556;2023-02-03T06:05:56;100442.75;;;7.67;86.03
75775;BME280;64505;51.458;7.556;2023-02-03T06:07:59;100434.16;;;7.73;86.00
75775;BME280;64505;51.458;7.556;2023-02-03T06:10:01;100449.75;;;7.75;85.82
75775;BME280;64505;51.458;7.556;2023-02-03T06:12:03;100435.97;;;7.73;85.86
75775;BME280;64505;51.458;7.556;2023-02-03T06:14:05;100442.47;;;7.77;85.41
75775;BME280;64505;51.458;7.556;2023-02-03T06:16:06;100450.13;;;7.72;86.24
75775;BME280;64505;51.458;7.556;2023-02-03T06:18:08;100442.47;;;7.77;85.72
75775;BME280;64505;51.458;7.556;2023-02-03T06:20:10;100442.41;;;7.70;85.41
75775;BME280;64505;51.458;7.556;2023-02-03T06:22:12;100456.38;;;7.71;86.08
75775;BME280;64505;51.458;7.556;2023-02-03T06:24:14;100451.09;;;7.71;86.06
75775;BME280;64505;51.458;7.556;2023-02-03T06:26:15;100442.28;;;7.78;85.64
75775;BME280;64505;51.458;7.556;2023-02-03T06:28:17;100443.09;;;7.79;85.39
75775;BME280;64505;51.458;7.556;2023-02-03T06:30:18;100438.22;;;7.76;85.81
75775;BME280;64505;51.458;7.556;2023-02-03T06:32:20;100447.75;;;7.77;85.36
75775;BME280;64505;51.458;7.556;2023-02-03T06:34:22;100449.34;;;7.78;85.39
75775;BME280;64505;51.458;7.556;2023-02-03T06:36:23;100437.00;;;7.78;85.79
75775;BME280;64505;51.458;7.556;2023-02-03T06:38:25;100449.34;;;7.78;85.39
75775;BME280;64505;51.458;7.556;2023-02-03T06:40:26;100463.53;;;7.77;86.00
75775;BME280;64505;51.458;7.556;2023-02-03T06:42:29;100449.34;;;7.78;86.14
75775;BME280;64505;51.458;7.556;2023-02-03T06:44:30;100459.53;;;7.81;86.33
75775;BME280;64505;51.458;7.556;2023-02-03T06:46:31;100453.63;;;7.79;86.15
75775;BME280;64505;51.458;7.556;2023-02-03T06:48:34;100464.53;;;7.76;86.26
75775;BME280;64505;51.458;7.556;2023-02-03T06:50:35;100457.25;;;7.78;86.00
75775;BME280;64505;51.458;7.556;2023-02-03T06:52:37;100453.00;;;7.77;86.88
75775;BME280;64505;51.458;7.556;2023-02-03T06:54:38;100457.03;;;7.73;86.38
75775;BME280;64505;51.458;7.556;2023-02-03T06:56:40;100451.38;;;7.76;86.71
75775;BME280;64505;51.458;7.556;2023-02-03T06:58:41;100454.84;;;7.76;87.46
75775;BME280;64505;51.458;7.556;2023-02-03T07:00:43;100453.00;;;7.77;87.03
75775;BME280;64505;51.458;7.556;2023-02-03T07:02:45;100466.72;;;7.72;87.14
75775;BME280;64505;51.458;7.556;2023-02-03T07:04:46;100460.47;;;7.73;87.57
75775;BME280;64505;51.458;7.556;2023-02-03T07:06:48;100483.06;;;7.68;88.17
75775;BME280;64505;51.458;7.556;2023-02-03T07:08:49;100475.38;;;7.66;88.52
75775;BME280;64505;51.458;7.556;2023-02-03T07:10:54;100475.28;;;7.60;88.86
75775;BME280;64505;51.458;7.556;2023-02-03T07:13:01;100475.66;;;7.57;89.88
75775;BME280;64505;51.458;7.556;2023-02-03T07:15:03;100485.34;;;7.56;90.08
75775;BME280;64505;51.458;7.556;2023-02-03T07:17:05;100474.28;;;7.61;90.16
75775;BME280;64505;51.458;7.556;2023-02-03T07:19:07;100481.34;;;7.60;89.72
75775;BME280;64505;51.458;7.556;2023-02-03T07:21:09;100475.09;;;7.61;90.64
75775;BME280;64505;51.458;7.556;2023-02-03T07:23:10;100463.97;;;7.59;90.81
75775;BME280;64505;51.458;7.556;2023-02-03T07:25:12;100469.75;;;7.55;91.29
75775;BME280;64505;51.458;7.556;2023-02-03T07:27:13;100467.50;;;7.52;91.28
75775;BME280;64505;51.458;7.556;2023-02-03T07:29:39;100462.41;;;7.50;90.76
75775;BME280;64505;51.458;7.556;2023-02-03T07:31:41;100461.16;;;7.46;91.46
75775;BME280;64505;51.458;7.556;2023-02-03T07:33:43;100452.88;;;7.49;91.80
75775;BME280;64505;51.458;7.556;2023-02-03T07:35:50;100460.97;;;7.48;91.24
75775;BME280;64505;51.458;7.556;2023-02-03T07:37:52;100451.44;;;7.47;91.67
75775;BME280;64505;51.458;7.556;2023-02-03T07:39:54;100462.78;;;7.47;92.05
75775;BME280;64505;51.458;7.556;2023-02-03T07:41:55;100459.53;;;7.45;91.71
75775;BME280;64505;51.458;7.556;2023-02-03T07:43:56;100477.97;;;7.45;90.67
75775;BME280;64505;51.458;7.556;2023-02-03T07:45:58;100460.97;;;7.48;90.60
75775;BME280;64505;51.458;7.556;2023-02-03T07:47:59;100471.06;;;7.44;91.62
75775;BME280;64505;51.458;7.556;2023-02-03T07:50:01;100476.75;;;7.48;90.66
75775;BME280;64505;51.458;7.556;2023-02-03T07:52:03;100474.13;;;7.48;90.93
75775;BME280;64505;51.458;7.556;2023-02-03T07:54:05;100474.97;;;7.48;90.11
75775;BME280;64505;51.458;7.556;2023-02-03T07:56:06;100469.50;;;7.50;90.46
75775;BME280;64505;51.458;7.556;2023-02-03T07:58:08;100471.56;;;7.54;89.66
75775;BME280;64505;51.458;7.556;2023-02-03T08:00:11;100481.72;;;7.57;89.10
75775;BME280;64505;51.458;7.556;2023-02-03T08:02:14;100476.28;;;7.59;89.23
75775;BME280;64505;51.458;7.556;2023-02-03T08:04:15;100484.56;;;7.56;89.94
75775;BME280;64505;51.458;7.556;2023-02-03T08:06:17;100488.25;;;7.61;88.78
75775;BME280;64505;51.458;7.556;2023-02-03T08:08:19;100482.19;;;7.61;89.05
75775;BME280;64505;51.458;7.556;2023-02-03T08:10:21;100473.09;;;7.63;89.16
75775;BME280;64505;51.458;7.556;2023-02-03T08:12:23;100476.81;;;7.69;89.07
75775;BME280;64505;51.458;7.556;2023-02-03T08:14:24;100478.63;;;7.68;88.55
75775;BME280;64505;51.458;7.556;2023-02-03T08:16:26;100468.47;;;7.65;89.25
75775;BME280;64505;51.458;7.556;2023-02-03T08:18:30;100476.81;;;7.69;88.89
75775;BME280;64505;51.458;7.556;2023-02-03T08:20:33;100477.81;;;7.68;88.47
75775;BME280;64505;51.458;7.556;2023-02-03T08:22:34;100476.63;;;7.70;88.40
75775;BME280;64505;51.458;7.556;2023-02-03T08:24:35;100476.63;;;7.70;88.67
75775;BME280;64505;51.458;7.556;2023-02-03T08:26:37;100483.34;;;7.73;88.68
75775;BME280;64505;51.458;7.556;2023-02-03T08:28:39;100474.63;;;7.72;88.17
75775;BME280;64505;51.458;7.556;2023-02-03T08:30:40;100482.69;;;7.71;88.45
75775;BME280;64505;51.458;7.556;2023-02-03T08:32:42;100482.69;;;7.71;88.30
75775;BME280;64505;51.458;7.556;2023-02-03T08:34:44;100483.34;;;7.73;87.79
75775;BME280;64505;51.458;7.556;2023-02-03T08:36:45;100481.53;;;7.73;88.04
75775;BME280;64505;51.458;7.556;2023-02-03T08:38:47;100467.16;;;7.76;88.25
75775;BME280;64505;51.458;7.556;2023-02-03T08:40:48;100476.44;;;7.72;88.55
75775;BME280;64505;51.458;7.556;2023-02-03T08:42:50;100463.72;;;7.75;88.50
75775;BME280;64505;51.458;7.556;2023-02-03T08:44:51;100470.63;;;7.76;88.10
75775;BME280;64505;51.458;7.556;2023-02-03T08:46:53;100465.59;;;7.81;87.88
75775;BME280;64505;51.458;7.556;2023-02-03T08:48:54;100460.91;;;7.77;88.58
75775;BME280;64505;51.458;7.556;2023-02-03T08:50:57;100476.72;;;7.77;88.56
75775;BME280;64505;51.458;7.556;2023-02-03T08:52:59;100475.50;;;7.79;88.22
75775;BME280;64505;51.458;7.556;2023-02-03T08:55:00;100470.69;;;7.83;87.69
75775;BME280;64505;51.458;7.556;2023-02-03T08:57:02;100482.41;;;7.80;88.31
75775;BME280;64505;51.458;7.556;2023-02-03T08:59:03;100479.97;;;7.79;88.70
75775;BME280;64505;51.458;7.556;2023-02-03T09:01:07;100494.13;;;7.78;89.17
75775;BME280;64505;51.458;7.556;2023-02-03T09:03:09;100488.22;;;7.76;89.04
75775;BME280;64505;51.458;7.556;2023-02-03T09:05:10;100489.88;;;7.77;88.79
75775;BME280;64505;51.458;7.556;2023-02-03T09:07:12;100486.59;;;7.75;88.95
75775;BME280;64505;51.458;7.556;2023-02-03T09:09:14;100488.22;;;7.76;89.18
75775;BME280;64505;51.458;7.556;2023-02-03T09:11:17;100492.69;;;7.75;88.66
75775;BME280;64505;51.458;7.556;2023-02-03T09:13:18;100486.88;;;7.80;88.80
75775;BME280;64505;51.458;7.556;2023-02-03T09:15:19;100489.66;;;7.78;88.59
75775;BME280;64505;51.458;7.556;2023-02-03T09:17:21;100479.97;;;7.79;89.04
75775;BME280;64505;51.458;7.556;2023-02-03T09:19:22;100489.50;;;7.80;88.14
75775;BME280;64505;51.458;7.556;2023-02-03T09:21:24;100498.66;;;7.84;88.98
75775;BME280;64505;51.458;7.556;2023-02-03T09:23:43;100500.84;;;7.80;88.45
75775;BME280;64505;51.458;7.556;2023-02-03T09:25:45;100504.09;;;7.82;88.31
75775;BME280;64505;51.458;7.556;2023-02-03T09:27:49;100508.38;;;7.83;88.64
75775;BME280;64505;51.458;7.556;2023-02-03T09:29:51;100510.25;;;7.89;87.97
75775;BME280;64505;51.458;7.556;2023-02-03T09:31:52;100493.03;;;7.87;88.05
75775;BME280;64505;51.458;7.556;2023-02-03T09:33:54;100502.72;;;7.86;88.54
75775;BME280;64505;51.458;7.556;2023-02-03T09:35:56;100488.56;;;7.87;88.35
75775;BME280;64505;51.458;7.556;2023-02-03T09:37:58;100498.13;;;7.88;88.26
75775;BME280;64505;51.458;7.556;2023-02-03T09:40:01;100509.81;;;7.86;88.47
75775;BME280;64505;51.458;7.556;2023-02-03T09:42:17;100497.09;;;7.89;88.23
75775;BME280;64505;51.458;7.556;2023-02-03T09:44:36;100495.47;;;7.88;88.17
75775;BME280;64505;51.458;7.556;2023-02-03T09:46:43;100487.19;;;7.91;88.37
75775;BME280;64505;51.458;7.556;2023-02-03T09:48:49;100489.41;;;7.88;88.49
75775;BME280;64505;51.458;7.556;2023-02-03T09:50:53;100488.19;;;7.90;88.04
75775;BME280;64505;51.458;7.556;2023-02-03T09:52:56;100493.47;;;7.90;88.25
75775;BME280;64505;51.458;7.556;2023-02-03T09:57:05;100486.00;;;7.94;87.73
75775;BME280;64505;51.458;7.556;2023-02-03T09:59:13;100491.09;;;7.96;87.91
75775;BME280;64505;51.458;7.556;2023-02-03T10:01:15;100483.81;;;7.98;88.26
75775;BME280;64505;51.458;7.556;2023-02-03T10:03:40;100467.56;;;7.94;88.40
75775;BME280;64505;51.458;7.556;2023-02-03T10:08:13;100486.06;;;8.01;87.44
75775;BME280;64505;51.458;7.556;2023-02-03T10:10:52;100508.50;;;7.97;87.97
75775;BME280;64505;51.458;7.556;2023-02-03T10:13:25;100510.31;;;7.96;88.22
75775;BME280;64505;51.458;7.556;2023-02-03T10:17:55;100516.84;;;8.00;87.87
75775;BME280;64505;51.458;7.556;2023-02-03T10:22:13;100492.31;;;8.00;88.21
75775;BME280;64505;51.458;7.556;2023-02-03T10:24:22;100497.41;;;8.01;88.15
75775;BME280;64505;51.458;7.556;2023-02-03T10:26:27;100506.31;;;8.00;88.02
75775;BME280;64505;51.458;7.556;2023-02-03T10:28:31;100506.53;;;7.99;88.02
75775;BME280;64505;51.458;7.556;2023-02-03T10:30:40;100516.69;;;8.02;87.85
75775;BME280;64505;51.458;7.556;2023-02-03T10:33:08;100522.94;;;8.01;88.11
75775;BME280;64505;51.458;7.556;2023-02-03T10:35:19;100515.84;;;8.01;88.34
75775;BME280;64505;51.458;7.556;2023-02-03T10:41:41;100523.22;;;8.06;88.53
75775;BME280;64505;51.458;7.556;2023-02-03T10:43:42;100513.28;;;8.08;88.09
75775;BME280;64505;51.458;7.556;2023-02-03T10:45:53;100508.84;;;8.08;88.33
75775;BME280;64505;51.458;7.556;2023-02-03T10:47:54;100526.28;;;8.09;88.52
75775;BME280;64505;51.458;7.556;2023-02-03T10:49:57;100518.38;;;8.09;88.48
75775;BME280;64505;51.458;7.556;2023-02-03T10:52:00;100529.91;;;8.08;88.56
75775;BME280;64505;51.458;7.556;2023-02-03T10:54:03;100520.56;;;8.06;88.82
75775;BME280;64505;51.458;7.556;2023-02-03T10:56:12;100516.75;;;8.08;88.68
75775;BME280;64505;51.458;7.556;2023-02-03T10:58:18;100503.75;;;8.07;88.60
75775;BME280;64505;51.458;7.556;2023-02-03T11:02:30;100502.31;;;8.04;88.83
75775;BME280;64505;51.458;7.556;2023-02-03T11:04:32;100493.41;;;8.05;89.00
75775;BME280;64505;51.458;7.556;2023-02-03T11:06:34;100498.25;;;8.02;89.33
75775;BME280;64505;51.458;7.556;2023-02-03T11:08:39;100493.03;;;8.08;88.74
75775;BME280;64505;51.458;7.556;2023-02-03T11:10:42;100502.97;;;8.06;88.89
75775;BME280;64505;51.458;7.556;2023-02-03T11:12:44;100506.84;;;8.10;88.88
75775;BME280;64505;51.458;7.556;2023-02-03T11:14:50;100518.63;;;8.14;88.83
75775;BME280;64505;51.458;7.556;2023-02-03T11:16:52;100524.72;;;8.15;88.68
75775;BME280;64505;51.458;7.556;2023-02-03T11:18:54;100511.91;;;8.12;89.02
75775;BME280;64505;51.458;7.556;2023-02-03T11:20:57;100518.44;;;8.16;88.70
75775;BME280;64505;51.458;7.556;2023-02-03T11:22:59;100526.19;;;8.17;88.86
75775;BME280;64505;51.458;7.556;2023-02-03T11:25:03;100521.63;;;8.11;88.68
75775;BME280;64505;51.458;7.556;2023-02-03T11:27:09;100518.06;;;8.19;88.85
75775;BME280;64505;51.458;7.556;2023-02-03T11:29:29;100528.59;;;8.19;88.92
75775;BME280;64505;51.458;7.556;2023-02-03T11:31:33;100536.94;;;8.22;88.71
75775;BME280;64505;51.458;7.556;2023-02-03T11:33:35;100539.41;;;8.24;88.60
75775;BME280;64505;51.458;7.556;2023-02-03T11:35:37;100525.84;;;8.27;88.87